Time;durP1;ratioP1;P1;durP2;ratioP2;P2;SDS_P1;SDS_P2;PMS_P1;PMS_P2;Temp;Humidity;BMP_temperature;BMP_pressure;BME280_temperature;BME280_humidity;BME280_pressure;Samples;Min_cycle;Max_cycle;Signal;HPM_P1;HPM_P2
2023/05/05 00:01:34;;;;;;;0.90;0.55;;;13.30;99.90;;;;;;4427950;32;21217;-62
2023/05/05 00:04:00;;;;;;;0.50;0.50;;;13.30;99.90;;;;;;4428175;32;20584;-64
2023/05/05 00:06:27;;;;;;;1.20;0.82;;;13.20;99.90;;;;;;4425488;32;20556;-63
2023/05/05 00:08:53;;;;;;;0.47;0.47;;;13.20;99.90;;;;;;4424584;32;20080;-62
2023/05/05 00:11:18;;;;;;;20.52;0.90;;;13.10;99.90;;;;;;4427216;32;21328;-62
2023/05/05 00:13:44;;;;;;;0.30;0.30;;;13.20;99.90;;;;;;4423538;32;20533;-65
2023/05/05 00:16:09;;;;;;;0.90;0.70;;;13.20;99.90;;;;;;4425565;32;20077;-62
2023/05/05 00:18:36;;;;;;;3.28;1.17;;;13.20;99.90;;;;;;4428491;32;20069;-63
2023/05/05 00:21:03;;;;;;;0.60;0.60;;;13.10;99.90;;;;;;4425902;32;20109;-63
2023/05/05 00:23:28;;;;;;;0.30;0.30;;;13.10;99.90;;;;;;4424366;32;20538;-64
2023/05/05 00:25:54;;;;;;;0.50;0.45;;;13.00;99.90;;;;;;4425692;32;20076;-63
2023/05/05 00:28:19;;;;;;;0.60;0.60;;;13.00;99.90;;;;;;4424547;32;20180;-63
2023/05/05 00:30:45;;;;;;;1.33;0.80;;;12.90;99.90;;;;;;4424344;32;20057;-63
2023/05/05 00:33:11;;;;;;;1.33;0.88;;;12.90;99.90;;;;;;4427578;32;20516;-65
2023/05/05 00:35:36;;;;;;;21.23;1.50;;;12.80;99.90;;;;;;4424401;32;20072;-64
2023/05/05 00:38:03;;;;;;;0.60;0.47;;;12.90;99.90;;;;;;4427802;32;20074;-63
2023/05/05 00:40:29;;;;;;;0.52;0.50;;;12.80;99.90;;;;;;4422727;32;20132;-63
2023/05/05 00:42:55;;;;;;;0.50;0.50;;;12.80;99.90;;;;;;4424775;32;20076;-64
2023/05/05 00:45:20;;;;;;;0.40;0.40;;;12.80;99.90;;;;;;4424671;32;20096;-63
2023/05/05 00:47:50;;;;;;;0.88;0.88;;;12.70;99.90;;;;;;4424933;32;20106;-62
2023/05/05 00:50:22;;;;;;;12.07;0.60;;;12.80;99.90;;;;;;4427897;32;20085;-64
2023/05/05 00:52:49;;;;;;;13.90;2.03;;;12.70;99.90;;;;;;4415138;32;20093;-63
2023/05/05 00:55:15;;;;;;;0.30;0.30;;;12.60;99.90;;;;;;4427797;32;20085;-64
2023/05/05 00:57:42;;;;;;;1.08;0.62;;;12.60;99.90;;;;;;4425869;32;20093;-63
2023/05/05 01:00:08;;;;;;;1.98;0.82;;;12.60;99.90;;;;;;4426255;32;20057;-62
2023/05/05 01:02:34;;;;;;;0.60;0.60;;;12.60;99.90;;;;;;4426563;32;20096;-65
2023/05/05 01:05:02;;;;;;;0.47;0.47;;;12.60;99.90;;;;;;4426017;32;20084;-63
2023/05/05 01:07:57;;;;;;;0.30;0.30;;;12.60;99.90;;;;;;4425769;32;20476;-63
2023/05/05 01:10:42;;;;;;;0.77;0.77;;;12.70;99.90;;;;;;4425739;32;20187;-62
2023/05/05 01:13:29;;;;;;;2.55;1.02;;;12.60;99.90;;;;;;4426535;32;20672;-63
2023/05/05 01:16:17;;;;;;;3.28;1.45;;;12.50;99.90;;;;;;4415214;32;20061;-62
2023/05/05 01:19:21;;;;;;;7.22;1.00;;;12.40;99.90;;;;;;4411216;32;20136;-62
2023/05/05 01:21:52;;;;;;;0.50;0.50;;;12.40;99.90;;;;;;4410968;32;20508;-64
2023/05/05 01:24:45;;;;;;;0.50;0.50;;;12.40;99.90;;;;;;4423603;32;20123;-62
2023/05/05 01:27:42;;;;;;;0.90;0.65;;;12.40;99.90;;;;;;4411186;32;21256;-65
2023/05/05 01:30:32;;;;;;;2.47;1.33;;;12.30;99.90;;;;;;4415447;32;20148;-62
2023/05/05 01:33:02;;;;;;;0.95;0.88;;;12.30;99.90;;;;;;4424779;32;20439;-64
2023/05/05 01:35:34;;;;;;;0.40;0.40;;;12.30;99.90;;;;;;4421707;32;20061;-63
2023/05/05 01:38:06;;;;;;;2.30;1.05;;;12.20;99.90;;;;;;4421152;32;20058;-66
2023/05/05 01:40:37;;;;;;;0.50;0.50;;;12.30;99.90;;;;;;4423517;32;20124;-66
2023/05/05 01:43:06;;;;;;;0.40;0.40;;;12.30;99.90;;;;;;4424845;32;20109;-62
2023/05/05 01:45:36;;;;;;;0.50;0.50;;;12.20;99.90;;;;;;4423400;32;20489;-63
2023/05/05 01:48:04;;;;;;;0.60;0.60;;;12.20;99.90;;;;;;4420220;32;20590;-64
2023/05/05 01:50:30;;;;;;;0.40;0.40;;;12.20;99.90;;;;;;4418706;32;20085;-62
2023/05/05 01:52:57;;;;;;;0.50;0.50;;;12.10;99.90;;;;;;4420100;32;20081;-63
2023/05/05 01:55:26;;;;;;;0.30;0.30;;;12.10;99.90;;;;;;4423631;32;20105;-63
2023/05/05 01:57:52;;;;;;;0.55;0.52;;;12.00;99.90;;;;;;4422746;32;20081;-63
2023/05/05 02:00:19;;;;;;;0.50;0.50;;;12.00;99.90;;;;;;4422419;32;20081;-62
2023/05/05 02:02:47;;;;;;;0.50;0.50;;;12.10;99.90;;;;;;4424779;32;20573;-65
2023/05/05 02:05:15;;;;;;;0.73;0.62;;;12.00;99.90;;;;;;4424144;32;20443;-63
2023/05/05 02:07:41;;;;;;;0.57;0.57;;;12.00;99.90;;;;;;4425664;32;20109;-65
2023/05/05 02:10:08;;;;;;;11.18;2.62;;;12.10;99.90;;;;;;4424480;32;20085;-62
2023/05/05 02:12:35;;;;;;;0.50;0.50;;;12.10;99.90;;;;;;4425584;32;20129;-63
2023/05/05 02:15:02;;;;;;;0.50;0.50;;;12.00;99.90;;;;;;4425237;32;20487;-63
2023/05/05 02:17:29;;;;;;;0.50;0.50;;;11.90;99.90;;;;;;4426466;32;22647;-63
2023/05/05 02:19:56;;;;;;;0.60;0.60;;;11.90;99.90;;;;;;4426431;32;20097;-62
2023/05/05 02:22:21;;;;;;;0.50;0.50;;;11.90;99.90;;;;;;4426053;32;20069;-62
2023/05/05 02:24:47;;;;;;;1.75;0.80;;;11.80;99.90;;;;;;4424299;32;20076;-63
2023/05/05 02:27:16;;;;;;;0.52;0.52;;;11.80;99.90;;;;;;4423788;32;20073;-62
2023/05/05 02:29:47;;;;;;;1.62;0.47;;;11.70;99.90;;;;;;4424932;32;20089;-62
2023/05/05 02:32:19;;;;;;;0.30;0.30;;;11.80;99.90;;;;;;4424739;32;20069;-65
2023/05/05 02:34:48;;;;;;;0.70;0.62;;;11.70;99.90;;;;;;4422785;32;20200;-63
2023/05/05 02:37:18;;;;;;;0.40;0.40;;;11.80;99.90;;;;;;4423830;32;20062;-63
2023/05/05 02:39:57;;;;;;;0.80;0.75;;;11.80;99.90;;;;;;4426564;32;20145;-63
2023/05/05 02:42:27;;;;;;;0.50;0.50;;;11.70;99.90;;;;;;4424574;32;20126;-64
2023/05/05 02:44:57;;;;;;;0.65;0.40;;;11.80;99.90;;;;;;4411692;32;20281;-63
2023/05/05 02:47:33;;;;;;;0.53;0.53;;;11.70;99.90;;;;;;4424969;32;20828;-63
2023/05/05 02:50:00;;;;;;;0.47;0.47;;;11.70;99.90;;;;;;4428826;32;20090;-62
2023/05/05 02:52:26;;;;;;;0.65;0.40;;;11.60;99.90;;;;;;4427310;32;20070;-62
2023/05/05 02:54:51;;;;;;;0.40;0.40;;;11.60;99.90;;;;;;4427703;32;20134;-63
2023/05/05 02:57:20;;;;;;;2.22;0.93;;;11.50;99.90;;;;;;4424301;32;20076;-63
2023/05/05 02:59:57;;;;;;;0.62;0.60;;;11.50;99.90;;;;;;4412319;32;20073;-63
2023/05/05 03:02:28;;;;;;;0.30;0.30;;;11.60;99.90;;;;;;4425934;32;20050;-63
2023/05/05 03:05:19;;;;;;;0.80;0.68;;;11.60;99.90;;;;;;4424398;32;20737;-64
2023/05/05 03:07:57;;;;;;;0.47;0.47;;;11.50;99.90;;;;;;4413942;32;20595;-64
2023/05/05 03:10:29;;;;;;;2.37;1.45;;;11.50;99.90;;;;;;4424335;32;20365;-63
2023/05/05 03:12:58;;;;;;;17.70;0.45;;;11.40;99.90;;;;;;4423985;32;20108;-64
2023/05/05 03:15:30;;;;;;;0.75;0.62;;;11.40;99.90;;;;;;4426246;32;20141;-66
2023/05/05 03:17:56;;;;;;;0.57;0.57;;;11.40;99.90;;;;;;4426364;32;20074;-65
2023/05/05 03:20:23;;;;;;;1.23;0.68;;;11.40;99.90;;;;;;4424657;32;20481;-64
2023/05/05 03:22:48;;;;;;;0.62;0.60;;;11.40;99.90;;;;;;4429291;32;20069;-63
2023/05/05 03:25:14;;;;;;;1.27;0.60;;;11.40;99.90;;;;;;4427126;32;20516;-66
2023/05/05 03:27:39;;;;;;;0.60;0.60;;;11.30;99.90;;;;;;4427308;32;20060;-63
2023/05/05 03:30:06;;;;;;;0.60;0.60;;;11.30;99.90;;;;;;4428314;32;20073;-65
2023/05/05 03:32:31;;;;;;;0.60;0.60;;;11.20;99.90;;;;;;4425751;32;20094;-65
2023/05/05 03:34:57;;;;;;;0.68;0.60;;;11.30;99.90;;;;;;4425350;32;20144;-64
2023/05/05 03:37:22;;;;;;;0.55;0.55;;;11.30;99.90;;;;;;4427656;32;20072;-65
2023/05/05 03:39:48;;;;;;;0.90;0.82;;;11.30;99.90;;;;;;4424829;32;20090;-65
2023/05/05 03:42:13;;;;;;;0.52;0.52;;;11.20;99.90;;;;;;4425266;32;20074;-64
2023/05/05 03:44:38;;;;;;;0.93;0.90;;;11.20;99.90;;;;;;4423664;32;21174;-62
2023/05/05 03:47:04;;;;;;;5.18;2.08;;;11.10;99.90;;;;;;4423804;32;20113;-64
2023/05/05 03:49:30;;;;;;;0.55;0.50;;;11.20;99.90;;;;;;4425352;32;20116;-63
2023/05/05 03:51:55;;;;;;;0.40;0.40;;;11.10;99.90;;;;;;4425414;32;20503;-62
2023/05/05 03:54:20;;;;;;;0.50;0.50;;;11.00;99.90;;;;;;4422405;32;20102;-62
2023/05/05 03:56:46;;;;;;;8.15;2.15;;;11.00;99.90;;;;;;4421948;32;20100;-62
2023/05/05 03:59:11;;;;;;;0.70;0.40;;;11.00;99.90;;;;;;4424141;32;20509;-62
2023/05/05 04:01:37;;;;;;;0.50;0.50;;;11.00;99.90;;;;;;4424335;32;20126;-63
2023/05/05 04:04:03;;;;;;;0.50;0.50;;;11.00;99.90;;;;;;4423588;32;20121;-62
2023/05/05 04:06:28;;;;;;;0.73;0.60;;;11.00;99.90;;;;;;4427270;32;20495;-64
2023/05/05 04:08:53;;;;;;;0.43;0.43;;;11.00;99.90;;;;;;4425389;32;20060;-62
2023/05/05 04:11:20;;;;;;;1.55;0.73;;;11.00;99.90;;;;;;4423120;32;20081;-62
2023/05/05 04:13:47;;;;;;;1.25;0.82;;;10.90;99.90;;;;;;4426485;32;20120;-63
2023/05/05 04:16:12;;;;;;;3.05;0.68;;;10.90;99.90;;;;;;4427162;32;20092;-64
2023/05/05 04:18:38;;;;;;;0.50;0.50;;;10.90;99.90;;;;;;4423291;32;20131;-63
2023/05/05 04:21:03;;;;;;;0.43;0.43;;;10.90;99.90;;;;;;4420907;32;20124;-65
2023/05/05 04:23:29;;;;;;;2.20;1.62;;;10.90;99.90;;;;;;4422463;32;20073;-64
2023/05/05 04:25:54;;;;;;;1.23;0.85;;;10.90;99.90;;;;;;4424919;32;20093;-63
2023/05/05 04:28:20;;;;;;;0.40;0.40;;;10.90;99.90;;;;;;4425616;32;20065;-63
2023/05/05 04:30:46;;;;;;;0.57;0.57;;;11.00;99.90;;;;;;4426382;32;20065;-64
2023/05/05 04:33:11;;;;;;;0.70;0.70;;;11.00;99.90;;;;;;4424011;32;20090;-64
2023/05/05 04:35:37;;;;;;;3.37;1.00;;;11.10;99.90;;;;;;4427891;32;20124;-64
2023/05/05 04:38:03;;;;;;;0.50;0.50;;;11.10;99.90;;;;;;4425933;32;20354;-63
2023/05/05 04:40:28;;;;;;;0.50;0.50;;;11.00;99.90;;;;;;4422623;32;20081;-64
2023/05/05 04:42:54;;;;;;;0.57;0.57;;;11.10;99.90;;;;;;4427037;32;20600;-63
2023/05/05 04:45:19;;;;;;;1.10;0.80;;;11.10;99.90;;;;;;4426543;32;20068;-63
2023/05/05 04:47:45;;;;;;;0.80;0.80;;;11.10;99.90;;;;;;4426421;32;20529;-65
2023/05/05 04:50:11;;;;;;;0.62;0.47;;;11.10;99.90;;;;;;4422465;32;20085;-64
2023/05/05 04:52:36;;;;;;;0.60;0.60;;;11.10;99.90;;;;;;4425174;32;20093;-64
2023/05/05 04:55:03;;;;;;;0.88;0.68;;;11.10;99.90;;;;;;4424366;32;20119;-64
2023/05/05 04:57:28;;;;;;;0.65;0.65;;;11.10;99.90;;;;;;4422950;32;20097;-64
2023/05/05 04:59:54;;;;;;;2.10;0.45;;;11.10;99.90;;;;;;4424891;32;20089;-63
2023/05/05 05:02:19;;;;;;;0.30;0.30;;;11.10;99.90;;;;;;4420844;32;20126;-63
2023/05/05 05:04:45;;;;;;;3.25;0.65;;;11.20;99.90;;;;;;4423884;32;20408;-64
2023/05/05 05:07:12;;;;;;;0.68;0.68;;;11.20;99.90;;;;;;4419251;32;20069;-63
2023/05/05 05:09:38;;;;;;;0.70;0.70;;;11.30;99.90;;;;;;4419852;32;20138;-64
2023/05/05 05:12:04;;;;;;;0.70;0.70;;;11.30;99.90;;;;;;4419956;32;20100;-64
2023/05/05 05:14:36;;;;;;;0.45;0.45;;;11.40;99.90;;;;;;4425081;32;20081;-63
2023/05/05 05:17:02;;;;;;;4.25;1.17;;;11.50;99.90;;;;;;4413720;32;20093;-66
2023/05/05 05:19:28;;;;;;;1.08;0.70;;;11.40;99.90;;;;;;4420411;32;20128;-63
2023/05/05 05:21:53;;;;;;;0.50;0.50;;;11.50;99.90;;;;;;4418070;32;20061;-67
2023/05/05 05:24:19;;;;;;;0.40;0.40;;;11.50;99.90;;;;;;4425715;32;20088;-64
2023/05/05 05:26:47;;;;;;;0.82;0.70;;;11.60;99.90;;;;;;4410058;32;20132;-65
2023/05/05 05:29:13;;;;;;;3.40;1.05;;;11.70;99.90;;;;;;4419595;32;21004;-63
2023/05/05 05:31:38;;;;;;;1.80;1.30;;;11.70;99.90;;;;;;4396274;32;20106;-64
2023/05/05 05:34:04;;;;;;;0.93;0.93;;;11.80;99.90;;;;;;4421681;32;20105;-63
2023/05/05 05:36:30;;;;;;;0.40;0.40;;;11.80;99.90;;;;;;4422436;32;20061;-65
2023/05/05 05:38:56;;;;;;;3.08;1.12;;;11.90;99.90;;;;;;4405013;32;20085;-66
2023/05/05 05:41:23;;;;;;;0.73;0.55;;;11.90;99.90;;;;;;4423227;32;20576;-63
2023/05/05 05:43:50;;;;;;;0.82;0.70;;;12.00;99.90;;;;;;4417542;32;20085;-64
2023/05/05 05:46:16;;;;;;;0.77;0.73;;;12.10;99.90;;;;;;4408493;32;20078;-64
2023/05/05 05:48:41;;;;;;;1.55;1.45;;;12.10;99.90;;;;;;4398687;32;20101;-64
2023/05/05 05:51:07;;;;;;;0.50;0.50;;;12.20;99.90;;;;;;4419746;32;20098;-64
2023/05/05 05:53:33;;;;;;;0.65;0.65;;;12.30;99.90;;;;;;4416911;32;20454;-64
2023/05/05 05:56:00;;;;;;;0.95;0.90;;;12.30;99.90;;;;;;4409932;32;20793;-67
2023/05/05 05:58:25;;;;;;;1.15;0.60;;;12.30;99.90;;;;;;4407980;32;20119;-65
2023/05/05 06:00:51;;;;;;;0.73;0.68;;;12.40;99.90;;;;;;4406359;32;20225;-66
2023/05/05 06:03:16;;;;;;;0.50;0.50;;;12.50;99.90;;;;;;4399269;32;20140;-64
2023/05/05 06:05:44;;;;;;;5.20;1.33;;;12.60;99.90;;;;;;4404765;32;20113;-64
2023/05/05 06:08:10;;;;;;;2.72;1.12;;;12.60;99.90;;;;;;4412676;32;20705;-64
2023/05/05 06:10:35;;;;;;;0.45;0.45;;;12.70;99.90;;;;;;4412971;32;20108;-65
2023/05/05 06:13:00;;;;;;;20.30;1.02;;;12.70;99.90;;;;;;4412411;32;20108;-67
2023/05/05 06:15:26;;;;;;;1.12;0.93;;;12.70;99.90;;;;;;4409283;32;20194;-65
2023/05/05 06:17:52;;;;;;;0.45;0.45;;;12.80;99.90;;;;;;4412912;32;20118;-67
2023/05/05 06:20:17;;;;;;;0.60;0.60;;;12.90;99.90;;;;;;4419009;32;20323;-66
2023/05/05 06:22:42;;;;;;;0.80;0.62;;;13.20;99.90;;;;;;4408121;32;20113;-66
2023/05/05 06:25:08;;;;;;;3.70;1.80;;;13.40;99.90;;;;;;4403940;32;20100;-64
2023/05/05 06:27:34;;;;;;;1.65;1.42;;;13.50;99.90;;;;;;4402434;32;20069;-66
2023/05/05 06:29:59;;;;;;;1.85;1.15;;;13.50;99.90;;;;;;4402300;32;20109;-66
2023/05/05 06:32:25;;;;;;;1.50;0.95;;;13.50;99.90;;;;;;4407100;32;20357;-66
2023/05/05 06:34:50;;;;;;;0.52;0.52;;;13.40;99.90;;;;;;4401515;32;20096;-66
2023/05/05 06:37:15;;;;;;;2.05;0.70;;;13.40;99.90;;;;;;4409694;32;20118;-67
2023/05/05 06:39:41;;;;;;;0.40;0.40;;;13.40;99.90;;;;;;4408167;32;20085;-62
2023/05/05 06:42:07;;;;;;;0.40;0.40;;;13.50;99.90;;;;;;4411762;32;20097;-62
2023/05/05 06:44:33;;;;;;;0.40;0.40;;;13.40;99.90;;;;;;4415535;32;20151;-64
2023/05/05 06:46:59;;;;;;;1.15;1.02;;;13.40;99.90;;;;;;4402052;32;20117;-67
2023/05/05 06:49:24;;;;;;;1.00;0.95;;;13.50;99.90;;;;;;4409975;32;20556;-65
2023/05/05 06:51:50;;;;;;;1.75;1.10;;;13.40;99.90;;;;;;4421093;32;20086;-65
2023/05/05 06:54:15;;;;;;;0.65;0.65;;;13.50;99.90;;;;;;4417220;32;20138;-65
2023/05/05 06:56:41;;;;;;;0.43;0.43;;;13.50;99.90;;;;;;4415648;32;20726;-67
2023/05/05 06:59:06;;;;;;;0.52;0.52;;;13.50;99.90;;;;;;4414547;32;20093;-67
2023/05/05 07:01:32;;;;;;;0.80;0.80;;;13.50;99.90;;;;;;4406653;32;20136;-64
2023/05/05 07:03:57;;;;;;;0.45;0.45;;;13.60;99.90;;;;;;4413270;32;20093;-64
2023/05/05 07:06:24;;;;;;;0.50;0.50;;;13.60;99.90;;;;;;4410193;32;20144;-65
2023/05/05 07:08:49;;;;;;;0.60;0.60;;;13.80;99.90;;;;;;4414905;32;20089;-64
2023/05/05 07:11:15;;;;;;;0.70;0.70;;;13.80;99.90;;;;;;4413370;32;20097;-66
2023/05/05 07:13:40;;;;;;;3.58;0.85;;;13.70;99.90;;;;;;4418108;32;20057;-66
2023/05/05 07:16:06;;;;;;;0.40;0.40;;;13.80;99.90;;;;;;4414764;32;20085;-66
2023/05/05 07:18:31;;;;;;;1.65;1.37;;;13.80;99.90;;;;;;4409163;32;20154;-65
2023/05/05 07:20:57;;;;;;;0.43;0.43;;;13.90;99.90;;;;;;4411554;32;21004;-64
2023/05/05 07:23:22;;;;;;;0.80;0.80;;;14.00;99.90;;;;;;4404470;32;20468;-66
2023/05/05 07:25:48;;;;;;;1.85;1.10;;;14.10;99.90;;;;;;4414737;32;20122;-65
2023/05/05 07:28:14;;;;;;;0.70;0.70;;;14.20;99.80;;;;;;4410380;32;20489;-63
2023/05/05 07:30:40;;;;;;;1.65;1.10;;;14.30;99.90;;;;;;4407983;32;20819;-65
2023/05/05 07:33:06;;;;;;;0.50;0.40;;;14.30;99.20;;;;;;4393880;32;20687;-65
2023/05/05 07:35:31;;;;;;;0.62;0.62;;;14.40;99.20;;;;;;4412323;32;20092;-64
2023/05/05 07:37:57;;;;;;;0.68;0.57;;;14.40;99.30;;;;;;4410047;32;20153;-64
2023/05/05 07:40:22;;;;;;;0.80;0.50;;;14.60;99.20;;;;;;4410036;32;20179;-64
2023/05/05 07:42:48;;;;;;;1.02;0.75;;;14.80;98.80;;;;;;4400219;32;20093;-64
2023/05/05 07:45:13;;;;;;;13.50;1.90;;;15.00;99.40;;;;;;4406022;32;20109;-64
2023/05/05 07:47:39;;;;;;;1.65;0.70;;;15.20;98.70;;;;;;4396999;32;20683;-64
2023/05/05 07:50:05;;;;;;;0.80;0.62;;;15.20;97.80;;;;;;4387101;32;20521;-64
2023/05/05 07:52:31;;;;;;;1.02;0.70;;;15.10;97.70;;;;;;4384814;32;20157;-64
2023/05/05 07:54:56;;;;;;;0.95;0.95;;;15.20;97.80;;;;;;4387846;32;20159;-64
2023/05/05 07:57:23;;;;;;;2.45;0.95;;;15.10;97.30;;;;;;4373634;32;20801;-65
2023/05/05 07:59:49;;;;;;;0.73;0.68;;;15.20;98.00;;;;;;4390226;32;20080;-64
2023/05/05 08:02:15;;;;;;;0.85;0.85;;;15.40;97.70;;;;;;4390532;32;20096;-64
2023/05/05 08:04:41;;;;;;;0.52;0.50;;;15.50;97.80;;;;;;4393436;32;20840;-64
2023/05/05 08:07:08;;;;;;;0.70;0.70;;;15.60;97.30;;;;;;4379982;32;20106;-64
2023/05/05 08:09:34;;;;;;;1.45;1.05;;;15.70;97.00;;;;;;4349934;32;20458;-64
2023/05/05 08:12:01;;;;;;;2.53;1.60;;;15.60;97.30;;;;;;4390079;32;20652;-64
2023/05/05 08:14:26;;;;;;;0.70;0.70;;;15.70;96.70;;;;;;4388274;32;20085;-64
2023/05/05 08:16:52;;;;;;;0.50;0.50;;;15.70;96.60;;;;;;4391209;32;20118;-65
2023/05/05 08:19:18;;;;;;;0.62;0.60;;;15.80;96.80;;;;;;4397550;32;20118;-64
2023/05/05 08:21:43;;;;;;;1.12;0.70;;;15.90;97.20;;;;;;4403184;32;20097;-65
2023/05/05 08:24:09;;;;;;;0.60;0.60;;;16.20;97.00;;;;;;4404662;32;20781;-64
2023/05/05 08:26:36;;;;;;;1.10;0.95;;;16.30;96.20;;;;;;4375609;32;20081;-64
2023/05/05 08:29:01;;;;;;;3.60;1.40;;;16.30;96.30;;;;;;4384315;32;20164;-64
2023/05/05 08:31:31;;;;;;;0.77;0.70;;;16.60;96.20;;;;;;4389349;32;20104;-65
2023/05/05 08:33:56;;;;;;;0.57;0.57;;;16.80;96.10;;;;;;4381308;32;20159;-64
2023/05/05 08:36:22;;;;;;;0.52;0.50;;;16.80;95.80;;;;;;4384419;32;20429;-64
2023/05/05 08:38:47;;;;;;;0.88;0.88;;;16.90;95.80;;;;;;4385300;32;20114;-65
2023/05/05 08:41:16;;;;;;;0.70;0.70;;;16.80;95.80;;;;;;4392320;32;20146;-64
2023/05/05 08:43:45;;;;;;;0.65;0.65;;;16.90;95.90;;;;;;4385142;32;21229;-64
2023/05/05 08:46:11;;;;;;;0.70;0.70;;;16.90;95.20;;;;;;4386117;32;20090;-64
2023/05/05 08:48:40;;;;;;;0.57;0.57;;;16.80;96.00;;;;;;4374145;32;20124;-64
2023/05/05 08:51:08;;;;;;;3.50;1.48;;;17.00;96.10;;;;;;4396997;32;20068;-64
2023/05/05 08:53:44;;;;;;;1.17;1.08;;;17.10;95.10;;;;;;4361501;32;20383;-65
2023/05/05 08:56:12;;;;;;;1.17;0.77;;;17.30;95.30;;;;;;4396891;32;20085;-64
2023/05/05 08:58:39;;;;;;;3.37;1.23;;;17.30;95.00;;;;;;4367304;32;20150;-64
2023/05/05 09:01:05;;;;;;;0.62;0.60;;;17.50;95.10;;;;;;4378190;32;20560;-64
2023/05/05 09:03:32;;;;;;;1.35;0.75;;;17.70;96.10;;;;;;4379663;32;20705;-64
2023/05/05 09:05:58;;;;;;;1.05;0.80;;;17.90;94.10;;;;;;4394409;32;20446;-63
2023/05/05 09:08:25;;;;;;;0.62;0.62;;;17.90;94.20;;;;;;4397553;32;20748;-64
2023/05/05 09:10:50;;;;;;;0.88;0.82;;;18.10;94.20;;;;;;4390421;32;20422;-64
2023/05/05 09:13:16;;;;;;;4.87;1.10;;;18.10;94.10;;;;;;4394072;32;20840;-64
2023/05/05 09:15:41;;;;;;;0.35;0.35;;;18.20;93.80;;;;;;4398468;32;20085;-64
2023/05/05 09:18:08;;;;;;;1.08;0.85;;;18.20;93.50;;;;;;4389861;32;20110;-65
2023/05/05 09:20:35;;;;;;;0.65;0.65;;;18.30;92.90;;;;;;4381485;32;20204;-65
2023/05/05 09:23:19;;;;;;;1.77;0.80;;;18.20;92.40;;;;;;4377202;32;20160;-66
2023/05/05 09:26:00;;;;;;;1.35;1.10;;;18.20;92.60;;;;;;4381304;32;20100;-66
2023/05/05 09:28:26;;;;;;;1.20;1.08;;;18.30;92.40;;;;;;4399642;32;20119;-66
2023/05/05 09:30:52;;;;;;;0.60;0.60;;;18.40;92.50;;;;;;4397377;32;20113;-65
2023/05/05 09:33:29;;;;;;;1.05;0.60;;;18.50;92.40;;;;;;4396989;32;20069;-65
2023/05/05 09:35:56;;;;;;;0.32;0.32;;;18.60;91.70;;;;;;4393163;32;21107;-65
2023/05/05 09:38:23;;;;;;;0.50;0.50;;;18.70;91.80;;;;;;4398459;32;20615;-65
2023/05/05 09:40:50;;;;;;;0.50;0.50;;;18.80;92.20;;;;;;4394526;32;20246;-65
2023/05/05 09:43:18;;;;;;;0.40;0.40;;;19.10;91.80;;;;;;4387873;32;20514;-66
2023/05/05 09:45:43;;;;;;;0.77;0.45;;;19.30;91.70;;;;;;4383056;32;20097;-65
2023/05/05 09:48:24;;;;;;;0.73;0.73;;;19.40;90.80;;;;;;4388890;32;20814;-67
2023/05/05 09:50:50;;;;;;;3.60;0.95;;;19.30;91.70;;;;;;4383310;32;20257;-65
2023/05/05 09:53:16;;;;;;;0.70;0.70;;;19.50;91.10;;;;;;4397723;32;21289;-66
2023/05/05 09:55:59;;;;;;;0.90;0.70;;;19.80;90.60;;;;;;4396919;32;20114;-65
2023/05/05 09:58:27;;;;;;;0.93;0.75;;;19.80;90.40;;;;;;4403011;32;20824;-65
2023/05/05 10:00:53;;;;;;;0.37;0.37;;;20.10;90.90;;;;;;4399559;32;20085;-66
2023/05/05 10:03:19;;;;;;;1.55;0.93;;;20.10;88.00;;;;;;4399799;32;20552;-61
2023/05/05 10:05:49;;;;;;;0.45;0.45;;;20.00;89.40;;;;;;4404585;32;20089;-64
2023/05/05 10:08:15;;;;;;;1.15;0.95;;;20.20;89.80;;;;;;4410389;32;20109;-60
2023/05/05 10:10:49;;;;;;;1.92;0.85;;;20.30;89.80;;;;;;4398889;32;20098;-66
2023/05/05 10:13:17;;;;;;;0.70;0.50;;;20.50;89.80;;;;;;4383291;32;20722;-62
2023/05/05 10:15:44;;;;;;;0.70;0.70;;;20.80;89.80;;;;;;4387252;32;20102;-63
2023/05/05 10:18:13;;;;;;;0.45;0.45;;;20.80;87.20;;;;;;4392209;32;20105;-64
2023/05/05 10:20:41;;;;;;;0.30;0.30;;;20.90;87.50;;;;;;4396698;32;20085;-66
2023/05/05 10:23:12;;;;;;;2.08;1.15;;;21.20;87.80;;;;;;4409081;32;20496;-65
2023/05/05 10:25:45;;;;;;;0.30;0.30;;;21.50;88.60;;;;;;4412697;32;20296;-66
2023/05/05 10:28:18;;;;;;;0.30;0.30;;;21.80;85.60;;;;;;4405155;32;21125;-65
2023/05/05 10:30:47;;;;;;;1.70;0.93;;;21.90;85.30;;;;;;4400942;32;20359;-66
2023/05/05 10:33:16;;;;;;;0.32;0.32;;;21.60;84.50;;;;;;4393572;32;20077;-65
2023/05/05 10:35:43;;;;;;;0.68;0.68;;;21.60;85.70;;;;;;4376605;32;20880;-62
2023/05/05 10:38:11;;;;;;;1.00;0.77;;;22.00;82.90;;;;;;4403490;32;20651;-67
2023/05/05 10:40:42;;;;;;;0.93;0.82;;;22.20;83.60;;;;;;4398496;32;20096;-67
2023/05/05 10:43:07;;;;;;;3.87;1.45;;;22.10;81.10;;;;;;4406516;32;20089;-64
2023/05/05 10:45:33;;;;;;;2.28;1.30;;;22.00;82.20;;;;;;4407737;32;20122;-64
2023/05/05 10:48:02;;;;;;;0.30;0.30;;;22.30;83.00;;;;;;4409892;32;20372;-66
2023/05/05 10:50:33;;;;;;;0.30;0.30;;;22.40;80.90;;;;;;4405560;32;20762;-65
2023/05/05 10:53:06;;;;;;;;;;;22.50;81.80;;;;;;4385226;32;20093;-66
2023/05/05 10:55:42;;;;;;;0.50;0.50;;;22.60;79.20;;;;;;4386671;32;20221;-66
2023/05/05 10:58:37;;;;;;;0.75;0.75;;;22.50;78.30;;;;;;4393871;32;20077;-66
2023/05/05 11:01:03;;;;;;;0.30;0.30;;;22.70;80.70;;;;;;4374112;32;20080;-66
2023/05/05 11:03:30;;;;;;;0.62;0.60;;;23.40;78.30;;;;;;4400283;32;21848;-64
2023/05/05 11:06:06;;;;;;;1.15;0.65;;;23.60;79.20;;;;;;4382187;32;20077;-66
2023/05/05 11:08:34;;;;;;;0.40;0.40;;;24.10;77.60;;;;;;4393090;32;20811;-65
2023/05/05 11:11:01;;;;;;;0.30;0.30;;;24.10;76.60;;;;;;4397588;32;20073;-65
2023/05/05 11:13:27;;;;;;;0.30;0.30;;;24.20;76.90;;;;;;4394577;32;20167;-65
2023/05/05 11:15:54;;;;;;;0.20;0.20;;;23.90;75.40;;;;;;4405080;32;20112;-64
2023/05/05 11:18:29;;;;;;;0.45;0.45;;;23.60;76.60;;;;;;4401025;32;20089;-65
2023/05/05 11:21:00;;;;;;;0.30;0.30;;;23.40;76.30;;;;;;4398371;32;20170;-67
2023/05/05 11:23:27;;;;;;;2.53;1.08;;;23.90;77.70;;;;;;4402052;32;20884;-66
2023/05/05 11:25:53;;;;;;;0.88;0.40;;;24.10;76.60;;;;;;4392446;32;20099;-67
2023/05/05 11:28:23;;;;;;;1.00;0.90;;;24.20;75.80;;;;;;4384147;32;20442;-67
2023/05/05 11:31:02;;;;;;;0.50;0.50;;;23.90;74.30;;;;;;4392402;32;20101;-65
2023/05/05 11:33:30;;;;;;;0.20;0.20;;;23.40;75.90;;;;;;4401117;32;20086;-65
2023/05/05 11:35:57;;;;;;;0.30;0.30;;;23.30;76.10;;;;;;4404345;32;20154;-66
2023/05/05 11:38:45;;;;;;;0.47;0.47;;;23.20;77.40;;;;;;4403797;32;20085;-66
2023/05/05 11:41:16;;;;;;;1.55;0.60;;;23.10;78.60;;;;;;4381108;32;20106;-65
2023/05/05 11:46:11;;;;;;;0.32;0.32;;;23.00;77.40;;;;;;4413999;32;116952;-65
2023/05/05 11:48:45;;;;;;;0.98;0.88;;;23.90;79.00;;;;;;4429710;32;20119;-64
2023/05/05 11:51:13;;;;;;;0.57;0.30;;;24.00;77.10;;;;;;4416946;32;20228;-65
2023/05/05 11:53:44;;;;;;;1.27;0.75;;;23.70;75.40;;;;;;4422064;32;20061;-65
2023/05/05 11:56:10;;;;;;;;;;;23.40;76.30;;;;;;4432970;32;20278;-64
2023/05/05 11:58:36;;;;;;;0.40;0.40;;;23.30;77.00;;;;;;4431359;32;19960;-63
2023/05/05 12:01:06;;;;;;;3.20;0.73;;;23.60;75.90;;;;;;4434020;32;20176;-63
2023/05/05 12:03:35;;;;;;;0.82;0.30;;;23.80;75.50;;;;;;4429872;32;20070;-63
2023/05/05 12:06:02;;;;;;;2.37;1.33;;;24.10;75.50;;;;;;4433451;32;20579;-64
2023/05/05 12:08:33;;;;;;;1.02;0.40;;;24.70;75.30;;;;;;4429204;32;20090;-63
2023/05/05 12:11:05;;;;;;;0.30;0.30;;;25.60;73.30;;;;;;4432288;32;20081;-63
2023/05/05 12:13:31;;;;;;;0.60;0.37;;;25.80;71.40;;;;;;4426994;32;20069;-64
2023/05/05 12:16:10;;;;;;;0.70;0.37;;;25.70;70.60;;;;;;4434400;32;20093;-61
2023/05/05 12:18:35;;;;;;;0.45;0.35;;;25.40;71.20;;;;;;4428287;32;20093;-65
2023/05/05 12:21:11;;;;;;;0.10;0.10;;;25.80;72.20;;;;;;4431841;32;20119;-65
2023/05/05 12:23:37;;;;;;;0.57;0.57;;;26.20;71.90;;;;;;4435563;32;20085;-65
2023/05/05 12:26:03;;;;;;;0.28;0.28;;;25.90;70.10;;;;;;4435718;32;20101;-63
2023/05/05 12:28:46;;;;;;;0.22;0.20;;;25.80;70.00;;;;;;4429195;32;21474;-62
2023/05/05 12:31:12;;;;;;;4.37;0.20;;;26.20;70.80;;;;;;4422801;32;20659;-64
2023/05/05 12:33:39;;;;;;;0.75;0.55;;;26.30;68.50;;;;;;4429434;32;20069;-62
2023/05/05 12:36:05;;;;;;;0.28;0.28;;;26.00;69.70;;;;;;4436320;32;20117;-64
2023/05/05 12:38:31;;;;;;;0.40;0.40;;;26.40;68.20;;;;;;4434577;32;20223;-65
2023/05/05 12:40:57;;;;;;;0.47;0.43;;;26.60;69.20;;;;;;4434240;32;20107;-64
2023/05/05 12:43:23;;;;;;;0.45;0.45;;;26.90;68.60;;;;;;4438153;32;20544;-63
2023/05/05 12:45:58;;;;;;;0.20;0.20;;;26.70;66.70;;;;;;4436714;32;20565;-65
2023/05/05 12:48:24;;;;;;;0.28;0.28;;;26.50;67.50;;;;;;4429555;32;20074;-63
2023/05/05 12:50:51;;;;;;;0.22;0.20;;;26.50;68.20;;;;;;4439643;32;20387;-61
2023/05/05 12:53:20;;;;;;;0.10;0.10;;;26.40;68.40;;;;;;4436643;32;20089;-62
2023/05/05 12:55:46;;;;;;;0.10;0.10;;;26.50;67.50;;;;;;4435343;32;20873;-60